createdAt,value
2019-02-14T00:01:59.950Z,-2.10
2019-02-14T00:04:27.263Z,-2.00
2019-02-14T00:06:54.960Z,-1.90
2019-02-14T00:09:22.480Z,-1.70
2019-02-14T00:11:50.512Z,-1.70
2019-02-14T00:14:18.790Z,-1.70
2019-02-14T00:16:46.607Z,-1.80
2019-02-14T00:19:13.853Z,-1.80
2019-02-14T00:21:42.161Z,-1.90
2019-02-14T00:24:09.685Z,-1.90
2019-02-14T00:26:36.873Z,-1.90
2019-02-14T00:29:04.642Z,-1.90
2019-02-14T00:31:32.516Z,-2.10
2019-02-14T00:33:59.713Z,-2.20
2019-02-14T00:36:27.070Z,-1.90
2019-02-14T00:38:54.651Z,-1.90
2019-02-14T00:41:22.386Z,-1.80
2019-02-14T00:43:50.044Z,-1.90
2019-02-14T00:46:17.601Z,-1.90
2019-02-14T00:48:45.246Z,-2.10
2019-02-14T00:51:12.885Z,-2.10
2019-02-14T00:53:40.881Z,-2.10
2019-02-14T00:56:08.463Z,-2.10
2019-02-14T00:58:36.198Z,-2.00
2019-02-14T01:01:03.809Z,-2.10
2019-02-14T01:03:31.202Z,-2.10
2019-02-14T01:05:58.664Z,-2.10
2019-02-14T01:08:26.464Z,-2.20
2019-02-14T01:10:54.211Z,-2.20
2019-02-14T01:13:21.574Z,-2.20
2019-02-14T01:15:49.500Z,-2.30
2019-02-14T01:18:16.663Z,-2.10
2019-02-14T01:20:43.985Z,-2.10
2019-02-14T01:23:11.674Z,-2.10
2019-02-14T01:25:39.185Z,-2.20
2019-02-14T01:28:07.087Z,-2.20
2019-02-14T01:30:34.576Z,-2.10
2019-02-14T01:33:02.257Z,-2.00
2019-02-14T01:35:29.591Z,-2.00
2019-02-14T01:37:57.777Z,-2.10
2019-02-14T01:40:25.148Z,-2.00
2019-02-14T01:42:52.282Z,-2.00
2019-02-14T01:45:20.426Z,-2.00
2019-02-14T01:47:48.293Z,-2.00
2019-02-14T01:50:15.541Z,-1.90
2019-02-14T01:52:43.625Z,-2.00
2019-02-14T01:55:11.603Z,-2.00
2019-02-14T01:57:39.299Z,-1.90
2019-02-14T02:00:11.052Z,-2.00
2019-02-14T02:02:38.692Z,-2.10
2019-02-14T02:05:06.740Z,-2.20
2019-02-14T02:07:34.739Z,-2.20
2019-02-14T02:10:02.386Z,-2.40
2019-02-14T02:12:29.977Z,-2.40
2019-02-14T02:14:58.613Z,-2.30
2019-02-14T02:17:26.501Z,-2.20
2019-02-14T02:19:54.048Z,-2.20
2019-02-14T02:22:21.683Z,-2.20
2019-02-14T02:24:49.273Z,-2.20
2019-02-14T02:27:17.089Z,-2.30
2019-02-14T02:29:44.770Z,-2.10
2019-02-14T02:32:15.845Z,-2.20
2019-02-14T02:34:43.582Z,-2.40
2019-02-14T02:37:11.466Z,-2.50
2019-02-14T02:39:39.374Z,-2.50
2019-02-14T02:42:07.020Z,-2.60
2019-02-14T02:44:34.455Z,-2.60
2019-02-14T02:47:01.704Z,-2.60
2019-02-14T02:49:29.690Z,-2.50
2019-02-14T02:51:57.492Z,-2.40
2019-02-14T02:54:25.913Z,-2.20
2019-02-14T02:56:53.399Z,-2.40
2019-02-14T02:59:20.919Z,-2.60
2019-02-14T03:01:48.505Z,-2.60
2019-02-14T03:04:16.092Z,-2.60
2019-02-14T03:06:43.226Z,-2.70
2019-02-14T03:09:10.528Z,-2.70
2019-02-14T03:11:37.830Z,-2.60
2019-02-14T03:14:08.630Z,-2.50
2019-02-14T03:16:35.794Z,-2.20
2019-02-14T03:19:03.352Z,-2.20
2019-02-14T03:21:31.157Z,-2.50
2019-02-14T03:23:58.859Z,-2.40
2019-02-14T03:26:26.824Z,-2.40
2019-02-14T03:28:54.929Z,-2.50
2019-02-14T03:31:22.381Z,-2.60
2019-02-14T03:33:50.914Z,-2.60
2019-02-14T03:36:19.413Z,-2.50
2019-02-14T03:38:47.193Z,-2.60
2019-02-14T03:41:14.398Z,-2.30
2019-02-14T03:43:41.796Z,-2.30
2019-02-14T03:46:09.074Z,-2.30
2019-02-14T03:48:36.258Z,-2.40
2019-02-14T03:51:04.083Z,-2.30
2019-02-14T03:53:32.091Z,-2.40
2019-02-14T03:55:59.853Z,-2.30
2019-02-14T03:58:28.169Z,-2.30
2019-02-14T04:00:55.982Z,-2.40
2019-02-14T04:03:23.676Z,-2.40
2019-02-14T04:05:51.115Z,-2.40
2019-02-14T04:08:18.700Z,-2.50
2019-02-14T04:10:45.898Z,-2.50
2019-02-14T04:13:13.206Z,-2.50
2019-02-14T04:15:40.839Z,-2.50
2019-02-14T04:18:08.502Z,-2.50
2019-02-14T04:20:36.880Z,-2.40
2019-02-14T04:23:04.406Z,-2.50
2019-02-14T04:25:31.894Z,-2.40
2019-02-14T04:27:59.068Z,-2.40
2019-02-14T04:30:26.439Z,-2.40
2019-02-14T04:32:53.899Z,-2.40
2019-02-14T04:35:21.200Z,-2.40
2019-02-14T04:37:49.488Z,-2.50
2019-02-14T04:40:17.018Z,-2.40
2019-02-14T04:42:44.723Z,-2.60
2019-02-14T04:45:12.561Z,-2.50
2019-02-14T04:47:40.393Z,-2.60
2019-02-14T04:50:08.242Z,-2.50
2019-02-14T04:52:35.883Z,-2.50
2019-02-14T04:55:04.267Z,-2.50
2019-02-14T04:57:32.174Z,-2.60
2019-02-14T04:59:59.805Z,-2.50
2019-02-14T05:02:27.820Z,-2.60
2019-02-14T05:04:55.251Z,-2.50
2019-02-14T05:07:23.208Z,-2.50
2019-02-14T05:09:50.939Z,-2.60
2019-02-14T05:12:18.503Z,-2.80
2019-02-14T05:14:45.630Z,-2.90
2019-02-14T05:17:13.734Z,-2.90
2019-02-14T05:19:40.916Z,-2.80
2019-02-14T05:22:08.703Z,-2.80
2019-02-14T05:24:36.234Z,-2.80
2019-02-14T05:27:03.690Z,-3.00
2019-02-14T05:29:32.305Z,-3.10
2019-02-14T05:31:59.767Z,-3.10
2019-02-14T05:34:27.419Z,-3.10
2019-02-14T05:36:55.359Z,-3.20
2019-02-14T05:39:23.129Z,-3.20
2019-02-14T05:41:51.540Z,-3.20
2019-02-14T05:44:19.667Z,-3.30
2019-02-14T05:46:47.720Z,-3.30
2019-02-14T05:49:15.361Z,-3.30
2019-02-14T05:51:43.018Z,-3.40
2019-02-14T05:54:13.246Z,-3.30
2019-02-14T05:56:41.056Z,-3.30
2019-02-14T05:59:10.372Z,-3.40
2019-02-14T06:01:37.871Z,-3.30
2019-02-14T06:04:05.127Z,-3.40
2019-02-14T06:06:32.633Z,-3.20
2019-02-14T06:09:00.088Z,-3.00
2019-02-14T06:11:28.217Z,-2.90
2019-02-14T06:13:55.747Z,-3.10
2019-02-14T06:16:23.391Z,-3.30
2019-02-14T06:18:50.705Z,-3.40
2019-02-14T06:21:19.141Z,-3.10
2019-02-14T06:23:49.981Z,-3.00
2019-02-14T06:26:18.207Z,-3.00
2019-02-14T06:28:46.032Z,-3.00
2019-02-14T06:31:13.888Z,-3.10
2019-02-14T06:33:41.306Z,-3.10
2019-02-14T06:36:09.050Z,-3.10
2019-02-14T06:38:36.654Z,-2.80
2019-02-14T06:41:04.030Z,-2.90
2019-02-14T06:43:31.895Z,-3.00
2019-02-14T06:45:59.777Z,-3.00
2019-02-14T06:48:27.691Z,-2.80
2019-02-14T06:50:54.946Z,-3.00
2019-02-14T06:53:22.883Z,-3.00
2019-02-14T06:55:50.122Z,-2.90
2019-02-14T06:58:17.389Z,-2.90
2019-02-14T07:00:45.274Z,-2.80
2019-02-14T07:03:12.702Z,-2.80
2019-02-14T07:05:40.290Z,-2.80
2019-02-14T07:08:07.961Z,-2.70
2019-02-14T07:10:36.583Z,-2.60
2019-02-14T07:13:04.570Z,-2.50
2019-02-14T07:15:32.574Z,-2.40
2019-02-14T07:18:00.673Z,-2.30
2019-02-14T07:20:28.972Z,-2.20
2019-02-14T07:22:56.803Z,-2.10
2019-02-14T07:25:24.418Z,-2.10
2019-02-14T07:27:51.955Z,-2.10
2019-02-14T07:30:20.052Z,-2.00
2019-02-14T07:32:48.001Z,-2.00
2019-02-14T07:35:15.464Z,-1.90
2019-02-14T07:37:42.862Z,-1.80
2019-02-14T07:40:11.674Z,-1.70
2019-02-14T07:42:39.178Z,-1.60
2019-02-14T07:45:09.738Z,-1.60
2019-02-14T07:47:37.104Z,-1.50
2019-02-14T07:50:05.424Z,-1.30
2019-02-14T07:52:33.381Z,-1.20
2019-02-14T07:55:00.666Z,-1.20
2019-02-14T07:57:27.932Z,-1.10
2019-02-14T07:59:55.342Z,-0.90
2019-02-14T08:02:22.720Z,-0.90
2019-02-14T08:04:50.396Z,-0.80
2019-02-14T08:07:18.127Z,-0.70
2019-02-14T08:09:45.623Z,-0.70
2019-02-14T08:12:13.709Z,-0.50
2019-02-14T08:14:41.077Z,-0.30
2019-02-14T08:17:08.175Z,-0.10
2019-02-14T08:19:36.421Z,0.10
2019-02-14T08:22:04.022Z,0.30
2019-02-14T08:24:31.742Z,0.70
2019-02-14T08:26:59.617Z,1.20
2019-02-14T08:29:28.013Z,1.30
2019-02-14T08:31:56.703Z,1.60
2019-02-14T08:34:24.896Z,1.40
2019-02-14T08:36:56.509Z,0.90
2019-02-14T08:39:24.045Z,1.20
2019-02-14T08:41:52.435Z,1.20
2019-02-14T08:44:19.935Z,1.70
2019-02-14T08:46:47.809Z,2.00
2019-02-14T08:49:15.105Z,2.60
2019-02-14T08:51:42.729Z,2.10
2019-02-14T08:54:10.511Z,2.10
2019-02-14T08:56:38.933Z,2.20
2019-02-14T08:59:06.542Z,2.20
2019-02-14T09:01:33.902Z,1.90
2019-02-14T09:04:01.714Z,1.90
2019-02-14T09:06:29.630Z,2.10
2019-02-14T09:09:00.078Z,1.90
2019-02-14T09:11:27.489Z,2.20
2019-02-14T09:13:55.070Z,2.30
2019-02-14T09:16:23.010Z,2.30
2019-02-14T09:18:53.863Z,2.30
2019-02-14T09:21:21.330Z,2.60
2019-02-14T09:23:50.211Z,3.00
2019-02-14T09:26:18.287Z,3.70
2019-02-14T09:28:45.566Z,3.60
2019-02-14T09:31:13.650Z,3.30
2019-02-14T09:33:41.501Z,3.40
2019-02-14T09:36:08.611Z,4.20
2019-02-14T09:38:36.257Z,4.30
2019-02-14T09:41:03.828Z,4.80
2019-02-14T09:43:31.456Z,5.00
2019-02-14T09:45:58.880Z,4.50
2019-02-14T09:48:26.153Z,4.70
2019-02-14T09:50:53.497Z,4.90
2019-02-14T09:53:22.162Z,5.10
2019-02-14T09:55:49.584Z,5.00
2019-02-14T09:58:16.805Z,5.00
2019-02-14T10:00:44.626Z,5.50
2019-02-14T10:03:12.257Z,6.00
2019-02-14T10:05:40.010Z,6.50
2019-02-14T10:08:12.914Z,6.70
2019-02-14T10:10:37.347Z,6.90
2019-02-14T10:13:05.800Z,6.90
2019-02-14T10:15:33.880Z,7.00
2019-02-14T10:18:01.382Z,6.70
2019-02-14T10:20:28.846Z,6.80
2019-02-14T10:22:56.610Z,6.70
2019-02-14T10:25:23.958Z,6.60
2019-02-14T10:27:52.156Z,6.60
2019-02-14T10:30:19.530Z,6.50
2019-02-14T10:32:47.080Z,6.40
2019-02-14T10:35:15.011Z,7.20
2019-02-14T10:37:42.569Z,7.40
2019-02-14T10:40:11.776Z,7.60
2019-02-14T10:42:39.715Z,7.50
2019-02-14T10:45:10.897Z,7.70
2019-02-14T10:47:39.188Z,7.80
2019-02-14T10:50:08.790Z,8.40
2019-02-14T10:52:37.838Z,8.40
2019-02-14T10:55:08.751Z,8.10
2019-02-14T10:57:41.501Z,7.90
2019-02-14T11:00:18.048Z,8.20
2019-02-14T11:02:49.808Z,8.30
2019-02-14T11:05:21.560Z,8.50
2019-02-14T11:07:53.342Z,8.60
2019-02-14T11:10:27.721Z,9.40
2019-02-14T11:12:57.879Z,9.80
2019-02-14T11:15:28.464Z,9.70
2019-02-14T11:18:02.037Z,10.20
2019-02-14T11:20:34.574Z,10.50
2019-02-14T11:23:07.923Z,10.40
2019-02-14T11:25:38.123Z,10.70
2019-02-14T11:28:12.128Z,10.60
2019-02-14T11:30:41.578Z,10.80
2019-02-14T11:33:15.644Z,11.20
2019-02-14T11:35:44.084Z,10.30
2019-02-14T11:38:23.936Z,10.70
2019-02-14T11:40:53.812Z,10.90
2019-02-14T11:43:23.597Z,10.90
2019-02-14T11:45:54.929Z,10.90
2019-02-14T11:48:27.600Z,11.20
2019-02-14T11:50:57.888Z,11.60
2019-02-14T11:53:29.379Z,11.60
2019-02-14T11:55:59.794Z,11.80
2019-02-14T11:58:28.209Z,11.60
2019-02-14T12:00:55.468Z,11.40
2019-02-14T12:03:22.905Z,11.40
2019-02-14T12:05:50.310Z,11.60
2019-02-14T12:08:17.934Z,12.00
2019-02-14T12:10:46.437Z,12.40
2019-02-14T12:13:14.278Z,12.20
2019-02-14T12:15:41.765Z,12.00
2019-02-14T12:18:09.734Z,12.20
2019-02-14T12:20:47.874Z,12.30
2019-02-14T12:23:13.812Z,11.70
2019-02-14T12:25:42.797Z,11.10
2019-02-14T12:28:10.346Z,11.00
2019-02-14T12:30:39.203Z,10.70
2019-02-14T12:33:20.263Z,10.40
2019-02-14T12:35:48.076Z,10.60
2019-02-14T12:38:22.245Z,10.80
2019-02-14T12:40:49.977Z,10.60
2019-02-14T12:43:17.673Z,10.70
2019-02-14T12:45:44.953Z,11.10
2019-02-14T12:48:13.674Z,10.70
2019-02-14T12:50:40.900Z,10.60
2019-02-14T12:53:08.922Z,10.80
2019-02-14T12:55:36.521Z,10.20
2019-02-14T12:58:04.154Z,10.10
2019-02-14T13:00:33.064Z,10.50
2019-02-14T13:03:00.792Z,10.70
2019-02-14T13:05:28.360Z,10.10
2019-02-14T13:07:57.174Z,10.10
2019-02-14T13:10:26.155Z,10.40
2019-02-14T13:12:53.702Z,10.30
2019-02-14T13:15:21.750Z,10.10
2019-02-14T13:17:49.215Z,9.90
2019-02-14T13:20:17.184Z,9.60
2019-02-14T13:22:48.862Z,9.80
2019-02-14T13:25:16.463Z,9.80
2019-02-14T13:27:44.165Z,9.70
2019-02-14T13:30:15.338Z,9.80
2019-02-14T13:32:42.826Z,9.80
2019-02-14T13:35:10.285Z,9.70
2019-02-14T13:37:40.005Z,9.20
2019-02-14T13:40:08.004Z,9.20
2019-02-14T13:42:38.598Z,9.30
2019-02-14T13:45:09.825Z,9.30
2019-02-14T13:47:37.195Z,9.30
2019-02-14T13:50:06.159Z,9.20
2019-02-14T13:52:33.802Z,9.00
2019-02-14T13:55:01.377Z,9.10
2019-02-14T13:57:28.638Z,9.10
2019-02-14T13:59:57.034Z,9.10
2019-02-14T14:02:24.696Z,8.90
2019-02-14T14:04:57.121Z,8.80
2019-02-14T14:07:24.731Z,8.70
2019-02-14T14:09:52.407Z,8.80
2019-02-14T14:12:20.559Z,8.80
2019-02-14T14:14:48.296Z,8.80
2019-02-14T14:17:16.379Z,8.80
2019-02-14T14:19:43.998Z,9.00
2019-02-14T14:22:11.988Z,8.90
2019-02-14T14:24:39.436Z,9.00
2019-02-14T14:27:07.453Z,9.10
2019-02-14T14:29:35.296Z,9.00
2019-02-14T14:32:02.669Z,9.10
2019-02-14T14:34:30.172Z,9.20
2019-02-14T14:36:58.324Z,9.10
2019-02-14T14:39:26.402Z,9.10
2019-02-14T14:41:53.540Z,9.00
2019-02-14T14:44:29.996Z,9.10
2019-02-14T14:47:00.809Z,9.00
2019-02-14T14:49:27.960Z,9.00
2019-02-14T14:51:55.642Z,8.90
2019-02-14T14:54:23.279Z,8.90
2019-02-14T14:56:50.758Z,8.90
2019-02-14T14:59:18.571Z,8.80
2019-02-14T15:01:46.110Z,8.80
2019-02-14T15:04:13.488Z,8.90
2019-02-14T15:06:40.994Z,9.00
2019-02-14T15:09:12.437Z,9.00
2019-02-14T15:11:40.858Z,9.00
2019-02-14T15:14:08.528Z,9.10
2019-02-14T15:16:35.635Z,9.10
2019-02-14T15:19:03.800Z,9.20
2019-02-14T15:21:31.416Z,9.20
2019-02-14T15:23:58.530Z,9.20
2019-02-14T15:26:26.283Z,9.20
2019-02-14T15:28:53.670Z,9.10
2019-02-14T15:31:21.081Z,9.10
2019-02-14T15:33:49.314Z,9.20
2019-02-14T15:36:16.688Z,9.20
2019-02-14T15:38:44.763Z,9.20
2019-02-14T15:41:12.120Z,9.20
2019-02-14T15:43:39.880Z,9.20
2019-02-14T15:46:07.565Z,9.20
2019-02-14T15:48:35.022Z,9.20
2019-02-14T15:51:02.726Z,9.20
2019-02-14T15:53:30.488Z,9.20
2019-02-14T15:55:58.292Z,9.10
2019-02-14T15:58:26.030Z,9.00
2019-02-14T16:00:54.090Z,8.90
2019-02-14T16:03:21.627Z,8.90
2019-02-14T16:05:49.856Z,8.80
2019-02-14T16:08:19.454Z,8.80
2019-02-14T16:10:46.819Z,8.70
2019-02-14T16:13:14.060Z,8.50
2019-02-14T16:15:41.618Z,8.40
2019-02-14T16:18:09.170Z,8.30
2019-02-14T16:20:36.903Z,8.20
2019-02-14T16:23:06.434Z,8.10
2019-02-14T16:25:33.944Z,8.00
2019-02-14T16:28:01.590Z,8.00
2019-02-14T16:30:30.896Z,7.90
2019-02-14T16:32:58.335Z,7.80
2019-02-14T16:35:25.975Z,7.60
2019-02-14T16:37:53.396Z,7.50
2019-02-14T16:40:27.443Z,7.40
2019-02-14T16:42:54.745Z,7.20
2019-02-14T16:45:23.793Z,7.10
2019-02-14T16:47:51.066Z,6.90
2019-02-14T16:50:19.911Z,6.80
2019-02-14T16:52:47.921Z,6.60
2019-02-14T16:55:15.262Z,6.50
2019-02-14T16:57:42.644Z,6.40
2019-02-14T17:00:10.939Z,6.30
2019-02-14T17:02:38.455Z,6.20
2019-02-14T17:05:05.918Z,6.10
2019-02-14T17:07:34.054Z,6.00
2019-02-14T17:10:02.003Z,5.90
2019-02-14T17:12:29.556Z,5.70
2019-02-14T17:14:57.502Z,5.60
2019-02-14T17:17:27.846Z,5.60
2019-02-14T17:19:54.113Z,5.50
2019-02-14T17:22:22.019Z,5.50
2019-02-14T17:24:49.214Z,5.50
2019-02-14T17:27:18.111Z,5.70
2019-02-14T17:29:45.892Z,5.70
2019-02-14T17:32:13.599Z,5.50
2019-02-14T17:34:40.987Z,5.40
2019-02-14T17:37:08.786Z,5.10
2019-02-14T17:39:38.859Z,5.00
2019-02-14T17:42:06.715Z,5.20
2019-02-14T17:44:33.996Z,5.10
2019-02-14T17:47:01.573Z,5.00
2019-02-14T17:49:29.502Z,4.90
2019-02-14T17:51:56.670Z,4.80
2019-02-14T17:54:28.531Z,4.70
2019-02-14T17:56:55.851Z,4.70
2019-02-14T17:59:23.331Z,4.60
2019-02-14T18:01:51.058Z,4.40
2019-02-14T18:04:19.940Z,4.30
2019-02-14T18:06:50.648Z,4.40
2019-02-14T18:09:18.693Z,4.30
2019-02-14T18:11:49.251Z,4.30
2019-02-14T18:14:16.705Z,4.30
2019-02-14T18:16:44.074Z,4.10
2019-02-14T18:19:11.596Z,3.90
2019-02-14T18:21:38.976Z,3.70
2019-02-14T18:24:06.364Z,3.70
2019-02-14T18:26:33.762Z,3.60
2019-02-14T18:29:01.855Z,3.70
2019-02-14T18:31:29.001Z,3.50
2019-02-14T18:33:56.779Z,3.40
2019-02-14T18:36:24.601Z,3.30
2019-02-14T18:38:54.165Z,3.20
2019-02-14T18:41:21.908Z,3.10
2019-02-14T18:43:49.301Z,3.10
2019-02-14T18:46:16.990Z,3.10
2019-02-14T18:48:44.920Z,3.00
2019-02-14T18:51:12.594Z,3.10
2019-02-14T18:53:40.034Z,3.00
2019-02-14T18:56:09.545Z,2.80
2019-02-14T18:58:37.136Z,2.80
2019-02-14T19:01:05.307Z,2.70
2019-02-14T19:03:33.309Z,2.70
2019-02-14T19:06:00.838Z,2.60
2019-02-14T19:08:28.593Z,2.60
2019-02-14T19:10:56.918Z,2.60
2019-02-14T19:13:24.962Z,2.50
2019-02-14T19:15:52.444Z,2.40
2019-02-14T19:18:19.706Z,2.40
2019-02-14T19:20:46.861Z,2.30
2019-02-14T19:23:23.354Z,2.20
2019-02-14T19:25:43.992Z,2.20
2019-02-14T19:28:11.538Z,2.30
2019-02-14T19:30:39.122Z,2.30
2019-02-14T19:33:06.765Z,2.40
2019-02-14T19:35:34.501Z,2.40
2019-02-14T19:38:02.908Z,2.10
2019-02-14T19:40:30.336Z,2.10
2019-02-14T19:42:58.186Z,1.90
2019-02-14T19:45:36.089Z,1.90
2019-02-14T19:47:55.370Z,1.80
2019-02-14T19:50:23.367Z,1.90
2019-02-14T19:52:50.779Z,1.90
2019-02-14T19:55:18.397Z,1.80
2019-02-14T19:57:46.272Z,1.60
2019-02-14T20:00:14.352Z,1.50
2019-02-14T20:02:43.009Z,1.70
2019-02-14T20:05:10.833Z,1.60
2019-02-14T20:07:38.211Z,1.70
2019-02-14T20:10:08.383Z,1.60
2019-02-14T20:12:36.278Z,1.80
2019-02-14T20:15:04.993Z,1.80
2019-02-14T20:17:32.763Z,1.70
2019-02-14T20:20:00.465Z,1.60
2019-02-14T20:22:28.238Z,1.50
2019-02-14T20:24:57.026Z,1.50
2019-02-14T20:27:24.935Z,1.50
2019-02-14T20:29:52.926Z,1.40
2019-02-14T20:32:20.119Z,1.40
2019-02-14T20:34:47.896Z,1.30
2019-02-14T20:37:15.785Z,1.20
2019-02-14T20:39:44.333Z,1.00
2019-02-14T20:42:11.885Z,1.20
2019-02-14T20:44:39.268Z,1.20
2019-02-14T20:47:06.508Z,1.10
2019-02-14T20:49:34.116Z,1.10
2019-02-14T20:52:02.045Z,1.10
2019-02-14T20:54:30.570Z,1.00
2019-02-14T20:56:58.016Z,0.90
2019-02-14T20:59:25.309Z,0.90
